Time,TemperatureF,DewpointF,PressureIn,WindDirection,WindDirectionDegrees,WindSpeedMPH,WindSpeedGustMPH,Humidity,HourlyPrecipIn,Conditions,Clouds,dailyrainin,SoftwareType,DateUTC
2013-08-20 00:00:00,63.9,63.9,30.11,North,0,0.0,0.0,100,0.00,,,0.00,VWS V14.00,2013-08-20 04:00:00,
2013-08-20 00:15:00,63.9,63.9,30.11,North,0,0.0,0.0,100,0.00,,,0.00,VWS V14.00,2013-08-20 04:15:00,
2013-08-20 00:30:00,63.3,63.3,30.11,North,0,0.0,0.0,100,0.00,,,0.00,VWS V14.00,2013-08-20 04:30:00,
2013-08-20 00:45:00,63.3,63.3,30.11,North,0,0.0,0.0,100,0.00,,,0.00,VWS V14.00,2013-08-20 04:45:00,
2013-08-20 01:00:00,63.1,63.1,30.11,North,0,0.0,0.0,100,0.00,,,0.00,VWS V14.00,2013-08-20 05:00:00,
2013-08-20 01:15:00,63.1,63.1,30.11,North,0,0.0,0.0,100,0.00,,,0.00,VWS V14.00,2013-08-20 05:15:00,
2013-08-20 01:30:00,62.8,62.8,30.11,North,0,0.0,0.0,100,0.00,,,0.00,VWS V14.00,2013-08-20 05:30:00,
2013-08-20 01:45:00,62.6,62.6,30.08,North,0,0.0,0.0,100,0.00,,,0.00,VWS V14.00,2013-08-20 05:45:00,
2013-08-20 02:00:00,62.8,62.8,30.08,North,0,0.0,0.0,100,0.00,,,0.00,VWS V14.00,2013-08-20 06:00:00,
2013-08-20 02:15:00,63.1,63.1,30.08,North,0,0.0,0.0,100,0.00,,,0.00,VWS V14.00,2013-08-20 06:15:00,
2013-08-20 02:30:00,63.5,63.5,30.08,North,0,0.0,0.0,100,0.00,,,0.00,VWS V14.00,2013-08-20 06:30:00,
2013-08-20 02:45:00,63.5,63.5,30.08,North,0,0.0,0.0,100,0.00,,,0.00,VWS V14.00,2013-08-20 06:45:00,
2013-08-20 03:00:00,63.1,63.1,30.08,North,0,0.0,0.0,100,0.00,,,0.00,VWS V14.00,2013-08-20 07:00:00,
2013-08-20 03:15:00,63.0,63.0,30.11,North,0,0.0,0.0,100,0.00,,,0.00,VWS V14.00,2013-08-20 07:15:00,
2013-08-20 03:30:00,62.8,62.8,30.08,North,0,0.0,0.0,100,0.00,,,0.00,VWS V14.00,2013-08-20 07:30:00,
2013-08-20 03:44:00,62.4,62.4,30.08,North,0,0.0,0.0,100,0.00,,,0.00,VWS V14.00,2013-08-20 07:44:00,
2013-08-20 03:59:00,62.2,62.2,30.08,North,0,0.0,0.0,100,0.00,,,0.00,VWS V14.00,2013-08-20 07:59:00,
2013-08-20 04:14:00,62.1,62.1,30.08,North,0,0.0,0.0,100,0.00,,,0.00,VWS V14.00,2013-08-20 08:14:00,
2013-08-20 04:29:00,61.9,61.9,30.11,North,0,0.0,0.0,100,0.00,,,0.00,VWS V14.00,2013-08-20 08:29:00,
2013-08-20 04:44:00,62.2,62.2,30.08,North,0,0.0,0.0,100,0.00,,,0.00,VWS V14.00,2013-08-20 08:44:00,
2013-08-20 04:59:00,62.8,62.8,30.11,North,0,0.0,0.0,100,0.00,,,0.00,VWS V14.00,2013-08-20 08:59:00,
2013-08-20 05:14:00,63.0,63.0,30.11,North,0,0.0,0.0,100,0.00,,,0.00,VWS V14.00,2013-08-20 09:14:00,
2013-08-20 05:29:00,63.1,63.1,30.11,North,0,0.0,0.0,100,0.00,,,0.00,VWS V14.00,2013-08-20 09:29:00,
2013-08-20 05:44:00,63.7,63.7,30.11,North,0,0.0,0.0,100,0.00,,,0.00,VWS V14.00,2013-08-20 09:44:00,
2013-08-20 05:59:00,63.9,63.9,30.11,North,0,0.0,0.0,100,0.00,,,0.00,VWS V14.00,2013-08-20 09:59:00,
2013-08-20 06:14:00,63.9,63.9,30.14,North,0,0.0,0.0,100,0.00,,,0.00,VWS V14.00,2013-08-20 10:14:00,
2013-08-20 06:29:00,64.0,64.0,30.14,North,0,0.0,0.0,100,0.00,,,0.00,VWS V14.00,2013-08-20 10:29:00,
2013-08-20 06:44:00,64.2,64.2,30.14,North,0,0.0,0.0,100,0.00,,,0.00,VWS V14.00,2013-08-20 10:44:00,
2013-08-20 06:59:00,64.6,64.6,30.14,North,0,0.0,0.0,100,0.00,,,0.00,VWS V14.00,2013-08-20 10:59:00,
2013-08-20 07:14:00,64.8,64.8,30.14,North,0,0.0,0.0,100,0.00,,,0.00,VWS V14.00,2013-08-20 11:14:00,
2013-08-20 07:29:00,65.1,65.1,30.17,North,0,0.0,0.0,100,0.00,,,0.00,VWS V14.00,2013-08-20 11:29:00,
2013-08-20 07:44:00,65.5,65.5,30.17,North,0,0.0,0.0,100,0.00,,,0.00,VWS V14.00,2013-08-20 11:44:00,
2013-08-20 07:59:00,65.7,65.7,30.17,North,0,0.0,0.0,100,0.00,,,0.00,VWS V14.00,2013-08-20 11:59:00,
2013-08-20 08:14:00,65.8,65.8,30.17,North,0,0.0,0.0,100,0.00,,,0.00,VWS V14.00,2013-08-20 12:14:00,
2013-08-20 08:29:00,66.4,66.4,30.17,North,0,0.0,0.0,100,0.00,,,0.00,VWS V14.00,2013-08-20 12:29:00,
2013-08-20 08:44:00,67.3,67.3,30.17,North,0,0.0,0.0,100,0.00,,,0.00,VWS V14.00,2013-08-20 12:44:00,
2013-08-20 08:59:00,68.5,68.5,30.17,North,0,0.0,0.0,100,0.00,,,0.00,VWS V14.00,2013-08-20 12:59:00,
2013-08-20 09:14:00,69.3,69.3,30.17,North,0,0.0,0.0,100,0.00,,,0.00,VWS V14.00,2013-08-20 13:14:00,
2013-08-20 09:29:00,70.9,70.9,30.17,North,0,0.0,0.0,100,0.00,,,0.00,VWS V14.00,2013-08-20 13:29:00,
2013-08-20 09:44:00,73.0,73.1,30.17,North,0,0.0,0.0,100,0.00,,,0.00,VWS V14.00,2013-08-20 13:44:00,
2013-08-20 09:59:00,74.3,70.8,30.17,North,0,0.0,0.0,89,0.00,,,0.00,VWS V14.00,2013-08-20 13:59:00,
2013-08-20 10:14:00,76.1,67.6,30.17,North,0,0.0,0.0,75,0.00,,,0.00,VWS V14.00,2013-08-20 14:14:00,
2013-08-20 10:29:00,77.2,66.2,30.17,North,0,0.0,0.0,69,0.00,,,0.00,VWS V14.00,2013-08-20 14:29:00,
2013-08-20 10:44:00,78.8,64.2,30.17,North,0,0.0,0.0,61,0.00,,,0.00,VWS V14.00,2013-08-20 14:44:00,
2013-08-20 10:59:00,79.5,62.0,30.17,North,0,0.0,0.0,55,0.00,,,0.00,VWS V14.00,2013-08-20 14:59:00,
2013-08-20 11:14:00,81.3,61.5,30.17,North,0,0.0,0.0,51,0.00,,,0.00,VWS V14.00,2013-08-20 15:14:00,
2013-08-20 11:29:00,80.4,60.1,30.17,North,0,0.0,0.0,50,0.00,,,0.00,VWS V14.00,2013-08-20 15:29:00,
2013-08-20 11:44:00,83.5,61.8,30.17,North,0,0.0,0.0,48,0.00,,,0.00,VWS V14.00,2013-08-20 15:44:00,
2013-08-20 11:59:00,82.6,60.9,30.17,North,0,0.0,0.0,48,0.00,,,0.00,VWS V14.00,2013-08-20 15:59:00,
2013-08-20 12:14:00,84.2,61.8,30.17,North,0,0.0,0.0,47,0.00,,,0.00,VWS V14.00,2013-08-20 16:14:00,
2013-08-20 12:30:00,84.9,60.6,30.17,North,0,0.0,0.0,44,0.00,,,0.00,VWS V14.00,2013-08-20 16:30:00,
2013-08-20 12:45:00,84.2,61.2,30.17,North,0,0.0,0.0,46,0.00,,,0.00,VWS V14.00,2013-08-20 16:45:00,
2013-08-20 13:00:00,85.6,61.2,30.17,North,0,0.0,0.0,44,0.00,,CLR,0.00,VWS V14.00,2013-08-20 17:00:00,
2013-08-20 13:15:00,83.7,59.5,30.14,North,0,0.0,0.0,44,0.00,,CLR,0.00,VWS V14.00,2013-08-20 17:15:00,
2013-08-20 13:30:00,86.4,61.9,30.14,North,0,0.0,0.0,44,0.00,,CLR,0.00,VWS V14.00,2013-08-20 17:30:00,
2013-08-20 13:46:00,87.6,61.0,30.14,North,0,0.0,0.0,41,0.00,,CLR,0.00,VWS V14.00,2013-08-20 17:46:00,
2013-08-20 14:15:00,87.8,61.2,30.14,North,0,0.0,0.0,41,0.00,,CLR,0.00,VWS V14.00,2013-08-20 18:15:00,
2013-08-20 14:30:00,89.2,62.5,30.14,North,0,0.0,0.0,41,0.00,,CLR,0.00,VWS V14.00,2013-08-20 18:30:00,
2013-08-20 14:45:00,89.2,62.5,30.14,North,0,0.0,0.0,41,0.00,,SCT055,0.00,VWS V14.00,2013-08-20 18:45:00,
2013-08-20 15:00:00,88.7,62.0,30.14,North,0,0.0,0.0,41,0.00,,SCT055,0.00,VWS V14.00,2013-08-20 19:00:00,
2013-08-20 15:15:00,89.8,62.3,30.14,North,0,0.0,0.0,40,0.00,,SCT055,0.00,VWS V14.00,2013-08-20 19:15:00,
2013-08-20 15:30:00,88.5,61.8,30.14,North,0,0.0,0.0,41,0.00,,SCT055,0.00,VWS V14.00,2013-08-20 19:30:00,
2013-08-20 15:44:00,89.8,62.3,30.14,North,0,0.0,0.0,40,0.00,,SCT055,0.00,VWS V14.00,2013-08-20 19:44:00,
2013-08-20 15:59:00,91.4,63.7,30.14,North,0,0.0,0.0,40,0.00,,FEW055,0.00,VWS V14.00,2013-08-20 19:59:00,
2013-08-20 16:14:00,89.8,62.3,30.11,North,0,0.0,0.0,40,0.00,,FEW055,0.00,VWS V14.00,2013-08-20 20:14:00,
2013-08-20 16:29:00,88.0,61.3,30.11,North,0,0.0,0.0,41,0.00,,FEW055,0.00,VWS V14.00,2013-08-20 20:29:00,
2013-08-20 16:44:00,90.5,62.9,30.11,North,0,0.0,0.0,40,0.00,,FEW055,0.00,VWS V14.00,2013-08-20 20:44:00,
2013-08-20 16:59:00,89.2,62.5,30.11,North,0,0.0,0.0,41,0.00,,CLR,0.00,VWS V14.00,2013-08-20 20:59:00,
2013-08-20 17:14:00,90.7,63.1,30.11,North,0,0.0,0.0,40,0.00,,CLR,0.00,VWS V14.00,2013-08-20 21:14:00,
2013-08-20 17:29:00,90.1,62.6,30.11,North,0,0.0,0.0,40,0.00,,CLR,0.00,VWS V14.00,2013-08-20 21:29:00,
2013-08-20 17:44:00,90.1,62.6,30.11,North,0,0.0,0.0,40,0.00,,CLR,0.00,VWS V14.00,2013-08-20 21:44:00,
2013-08-20 17:59:00,90.9,63.2,30.11,North,0,0.0,0.0,40,0.00,,CLR,0.00,VWS V14.00,2013-08-20 21:59:00,
2013-08-20 18:14:00,89.6,62.1,30.11,North,0,0.0,0.0,40,0.00,,CLR,0.00,VWS V14.00,2013-08-20 22:14:00,
2013-08-20 18:29:00,88.3,61.7,30.11,North,0,0.0,0.0,41,0.00,,CLR,0.00,VWS V14.00,2013-08-20 22:29:00,
2013-08-20 18:44:00,87.1,60.5,30.11,North,0,0.0,0.0,41,0.00,,CLR,0.00,VWS V14.00,2013-08-20 22:44:00,
2013-08-20 18:59:00,84.9,58.6,30.11,North,0,0.0,0.0,41,0.00,,CLR,0.00,VWS V14.00,2013-08-20 22:59:00,
2013-08-20 19:14:00,81.7,56.4,30.11,North,0,0.0,0.0,42,0.00,,CLR,0.00,VWS V14.00,2013-08-20 23:14:00,
2013-08-20 19:29:00,78.8,57.5,30.11,North,0,0.0,0.0,48,0.00,,CLR,0.00,VWS V14.00,2013-08-20 23:29:00,
2013-08-20 19:44:00,76.3,56.3,30.11,North,0,0.0,0.0,50,0.00,,CLR,0.00,VWS V14.00,2013-08-20 23:44:00,
2013-08-20 19:59:00,74.8,56.0,30.14,North,0,0.0,0.0,52,0.00,,CLR,0.00,VWS V14.00,2013-08-20 23:59:00,
2013-08-20 20:14:00,73.4,56.3,30.14,North,0,0.0,0.0,55,0.00,,CLR,0.00,VWS V14.00,2013-08-21 00:14:00,
2013-08-20 20:29:00,72.0,56.9,30.14,North,0,0.0,0.0,59,0.00,,CLR,0.00,VWS V14.00,2013-08-21 00:29:00,
2013-08-20 20:44:00,70.5,56.4,30.14,North,0,0.0,0.0,61,0.00,,CLR,0.00,VWS V14.00,2013-08-21 00:44:00,
2013-08-20 20:59:00,68.9,57.1,30.14,North,0,0.0,0.0,66,0.00,,CLR,0.00,VWS V14.00,2013-08-21 00:59:00,
2013-08-20 21:14:00,68.0,59.0,30.14,North,0,0.0,0.0,73,0.00,,CLR,0.00,VWS V14.00,2013-08-21 01:14:00,
2013-08-20 21:29:00,67.3,61.6,30.14,North,0,0.0,0.0,82,0.00,,CLR,0.00,VWS V14.00,2013-08-21 01:29:00,
2013-08-20 21:44:00,66.7,62.1,30.17,North,0,0.0,0.0,85,0.00,,CLR,0.00,VWS V14.00,2013-08-21 01:44:00,
2013-08-20 21:59:00,66.2,62.9,30.17,North,0,0.0,0.0,89,0.00,,,0.00,VWS V14.00,2013-08-21 01:59:00,
2013-08-20 22:14:00,65.5,63.4,30.17,North,0,0.0,0.0,93,0.00,,,0.00,VWS V14.00,2013-08-21 02:14:00,
2013-08-20 22:29:00,64.9,63.5,30.17,North,0,0.0,0.0,95,0.00,,,0.00,VWS V14.00,2013-08-21 02:29:00,
2013-08-20 22:44:00,64.6,63.7,30.17,North,0,0.0,0.0,97,0.00,,,0.00,VWS V14.00,2013-08-21 02:44:00,
2013-08-20 22:59:00,64.0,64.0,30.17,North,0,0.0,0.0,100,0.00,,,0.00,VWS V14.00,2013-08-21 02:59:00,
2013-08-20 23:14:00,63.7,63.7,30.17,North,0,0.0,0.0,100,0.00,,,0.00,VWS V14.00,2013-08-21 03:14:00,
2013-08-20 23:29:00,63.5,63.5,30.17,North,0,0.0,0.0,100,0.00,,,0.00,VWS V14.00,2013-08-21 03:29:00,
2013-08-20 23:44:00,63.1,63.1,30.17,North,0,0.0,0.0,100,0.00,,,0.00,VWS V14.00,2013-08-21 03:44:00,
2013-08-20 23:59:00,62.8,62.8,30.17,North,0,0.0,0.0,100,0.00,,,0.00,VWS V14.00,2013-08-21 03:59:00,